Time,TemperatureF,DewpointF,PressureIn,WindDirection,WindDirectionDegrees,WindSpeedMPH,WindSpeedGustMPH,Humidity,HourlyPrecipIn,Conditions,Clouds,dailyrainin,SoftwareType,DateUTC
2013-03-03 00:00:00,29.5,19.2,29.44,NNW,338,0.7,0.7,65,0.00,,,0.00,WUHU216HW,2013-03-03 05:00:00,
2013-03-03 00:05:00,29.5,19.2,29.44,NNW,338,0.7,0.7,65,0.00,,,0.00,WUHU216HW,2013-03-03 05:05:00,
2013-03-03 00:30:00,29.2,18.8,29.44,West,270,6.5,6.5,65,0.00,,,0.00,WUHU216HW,2013-03-03 05:30:00,
2013-03-03 00:35:00,29.2,18.8,29.44,West,270,6.5,6.5,65,0.00,,,0.00,WUHU216HW,2013-03-03 05:35:00,
2013-03-03 00:59:00,29.5,19.5,29.43,WNW,293,7.4,7.4,66,0.00,,,0.00,WUHU216HW,2013-03-03 05:59:00,
2013-03-03 01:04:00,29.5,19.5,29.43,WNW,293,7.4,7.4,66,0.00,,,0.00,WUHU216HW,2013-03-03 06:04:00,
2013-03-03 01:30:00,29.3,19.0,29.43,NW,315,6.9,6.9,65,0.00,,,0.00,WUHU216HW,2013-03-03 06:30:00,
2013-03-03 01:35:00,29.3,19.0,29.43,NW,315,6.9,6.9,65,0.00,,,0.00,WUHU216HW,2013-03-03 06:35:00,
2013-03-03 01:59:00,29.2,19.2,29.43,WNW,293,0.7,0.7,66,0.00,,,0.00,WUHU216HW,2013-03-03 06:59:00,
2013-03-03 02:04:00,29.2,19.2,29.43,WNW,293,0.7,0.7,66,0.00,,,0.00,WUHU216HW,2013-03-03 07:04:00,
2013-03-03 02:29:00,28.8,18.9,29.42,NW,315,0.4,0.4,66,0.00,,,0.00,WUHU216HW,2013-03-03 07:29:00,
2013-03-03 02:34:00,28.8,18.9,29.42,NW,315,0.4,0.4,66,0.00,,,0.00,WUHU216HW,2013-03-03 07:34:00,
2013-03-03 02:59:00,29.2,19.2,29.42,NW,315,0.0,0.0,66,0.00,,,0.00,WUHU216HW,2013-03-03 07:59:00,
2013-03-03 03:05:00,29.2,19.2,29.42,NW,315,0.0,0.0,66,0.00,,,0.00,WUHU216HW,2013-03-03 08:05:00,
2013-03-03 03:29:00,29.9,19.8,29.41,WNW,293,2.5,2.5,66,0.00,,,0.00,WUHU216HW,2013-03-03 08:29:00,
2013-03-03 03:34:00,29.9,19.8,29.41,WNW,293,2.5,2.5,66,0.00,,,0.00,WUHU216HW,2013-03-03 08:34:00,
2013-03-03 03:59:00,29.9,19.8,29.41,WNW,293,4.0,4.0,66,0.00,,,0.00,WUHU216HW,2013-03-03 08:59:00,
2013-03-03 04:04:00,29.9,19.8,29.41,WNW,293,4.0,4.0,66,0.00,,,0.00,WUHU216HW,2013-03-03 09:04:00,
2013-03-03 04:29:00,30.2,20.2,29.42,WNW,293,3.8,3.8,66,0.00,,,0.00,WUHU216HW,2013-03-03 09:29:00,
2013-03-03 04:34:00,30.2,20.2,29.42,WNW,293,3.8,3.8,66,0.00,,,0.00,WUHU216HW,2013-03-03 09:34:00,
2013-03-03 08:59:00,34.6,20.4,29.44,WNW,293,13.4,13.4,56,0.00,,,0.00,WUHU216HW,2013-03-03 13:59:00,
2013-03-03 09:04:00,33.8,19.7,29.44,West,270,12.3,15.0,56,0.00,,,0.00,WUHU216HW,2013-03-03 14:04:00,
2013-03-03 09:09:00,33.8,19.7,29.44,WNW,293,11.9,15.0,56,0.00,,,0.00,WUHU216HW,2013-03-03 14:09:00,
2013-03-03 09:14:00,33.8,19.7,29.44,WNW,293,11.9,12.3,56,0.00,,,0.00,WUHU216HW,2013-03-03 14:14:00,
2013-03-03 09:35:00,36.0,21.0,29.44,NW,315,2.2,2.2,54,0.00,,,0.00,WUHU216HW,2013-03-03 14:35:00,
2013-03-03 09:40:00,36.0,21.0,29.44,NW,315,2.2,2.2,54,0.00,,,0.00,WUHU216HW,2013-03-03 14:40:00,
2013-03-03 10:00:00,36.9,19.5,29.43,WNW,293,10.1,10.1,49,0.00,,,0.00,WUHU216HW,2013-03-03 15:00:00,
2013-03-03 10:05:00,36.9,19.5,29.43,WNW,293,10.1,10.1,49,0.00,,,0.00,WUHU216HW,2013-03-03 15:05:00,
2013-03-03 10:30:00,39.2,19.5,29.43,West,270,8.9,8.9,45,0.00,,,0.00,WUHU216HW,2013-03-03 15:30:00,
2013-03-03 10:35:00,39.2,19.5,29.43,West,270,8.9,8.9,45,0.00,,,0.00,WUHU216HW,2013-03-03 15:35:00,
2013-03-03 11:00:00,38.9,19.2,29.43,WNW,293,11.6,11.6,45,0.00,,,0.00,WUHU216HW,2013-03-03 16:00:00,
2013-03-03 11:05:00,38.9,19.2,29.43,WNW,293,11.6,11.6,45,0.00,,,0.00,WUHU216HW,2013-03-03 16:05:00,
2013-03-03 11:30:00,38.3,19.3,29.42,NW,315,4.0,4.0,46,0.00,,,0.00,WUHU216HW,2013-03-03 16:30:00,
2013-03-03 11:35:00,38.3,19.3,29.42,NW,315,4.0,4.0,46,0.00,,,0.00,WUHU216HW,2013-03-03 16:35:00,
2013-03-03 12:00:00,38.3,18.2,29.43,NW,315,7.4,7.4,44,0.00,,,0.00,WUHU216HW,2013-03-03 17:00:00,
2013-03-03 12:05:00,38.3,18.2,29.43,NW,315,7.4,7.4,44,0.00,,,0.00,WUHU216HW,2013-03-03 17:05:00,
2013-03-03 12:30:00,37.4,17.9,29.42,WNW,293,7.2,7.2,45,0.00,,,0.00,WUHU216HW,2013-03-03 17:30:00,
2013-03-03 12:35:00,37.4,17.9,29.42,WNW,293,7.2,7.2,45,0.00,,,0.00,WUHU216HW,2013-03-03 17:35:00,
2013-03-03 13:00:00,41.8,20.3,29.40,WNW,293,11.6,11.6,42,0.00,,,0.00,WUHU216HW,2013-03-03 18:00:00,
2013-03-03 13:05:00,41.8,20.3,29.40,WNW,293,11.6,11.6,42,0.00,,,0.00,WUHU216HW,2013-03-03 18:05:00,
2013-03-03 13:30:00,42.5,19.8,29.40,WNW,293,12.1,12.1,40,0.00,,,0.00,WUHU216HW,2013-03-03 18:30:00,
2013-03-03 13:35:00,42.5,19.8,29.40,WNW,293,12.1,12.1,40,0.00,,,0.00,WUHU216HW,2013-03-03 18:35:00,
2013-03-03 14:00:00,41.2,19.7,29.39,WNW,293,12.5,12.5,42,0.00,,,0.00,WUHU216HW,2013-03-03 19:00:00,
2013-03-03 14:05:00,41.2,19.7,29.39,WNW,293,12.5,12.5,42,0.00,,,0.00,WUHU216HW,2013-03-03 19:05:00,
2013-03-03 14:30:00,39.6,18.8,29.39,WNW,293,5.1,5.1,43,0.00,,,0.00,WUHU216HW,2013-03-03 19:30:00,
2013-03-03 14:35:00,39.6,18.8,29.39,WNW,293,5.1,5.1,43,0.00,,,0.00,WUHU216HW,2013-03-03 19:35:00,
2013-03-03 15:00:00,44.3,20.8,29.39,WNW,293,14.3,14.3,39,0.00,,,0.00,WUHU216HW,2013-03-03 20:00:00,
2013-03-03 15:05:00,44.3,20.8,29.39,WNW,293,14.3,14.3,39,0.00,,,0.00,WUHU216HW,2013-03-03 20:05:00,
2013-03-03 15:30:00,39.6,18.8,29.40,WNW,293,8.1,8.1,43,0.00,,,0.00,WUHU216HW,2013-03-03 20:30:00,
2013-03-03 15:35:00,39.6,18.8,29.40,WNW,293,8.1,8.1,43,0.00,,,0.00,WUHU216HW,2013-03-03 20:35:00,
2013-03-03 16:00:00,44.5,20.3,29.40,WNW,293,7.6,7.6,38,0.00,,,0.00,WUHU216HW,2013-03-03 21:00:00,
2013-03-03 16:05:00,44.5,20.3,29.40,WNW,293,7.6,7.6,38,0.00,,,0.00,WUHU216HW,2013-03-03 21:05:00,
2013-03-03 16:30:00,41.0,19.1,29.40,WNW,293,6.9,6.9,41,0.00,,,0.00,WUHU216HW,2013-03-03 21:30:00,
2013-03-03 16:35:00,41.0,19.1,29.40,WNW,293,6.9,6.9,41,0.00,,,0.00,WUHU216HW,2013-03-03 21:35:00,
2013-03-03 17:00:00,41.8,19.7,29.41,WNW,293,4.0,4.0,41,0.00,,,0.00,WUHU216HW,2013-03-03 22:00:00,
2013-03-03 17:05:00,41.8,19.7,29.41,WNW,293,4.0,4.0,41,0.00,,,0.00,WUHU216HW,2013-03-03 22:05:00,
2013-03-03 17:30:00,43.6,21.3,29.42,NNW,338,1.8,1.8,41,0.00,,,0.00,WUHU216HW,2013-03-03 22:30:00,
2013-03-03 17:35:00,43.6,21.3,29.42,NNW,338,1.8,1.8,41,0.00,,,0.00,WUHU216HW,2013-03-03 22:35:00,
2013-03-03 18:00:00,35.3,17.0,29.43,WNW,293,2.9,2.9,47,0.00,,,0.00,WUHU216HW,2013-03-03 23:00:00,
2013-03-03 18:05:00,35.3,17.0,29.43,WNW,293,2.9,2.9,47,0.00,,,0.00,WUHU216HW,2013-03-03 23:05:00,
2013-03-03 18:30:00,33.1,16.9,29.44,WNW,293,8.3,8.3,51,0.00,,,0.00,WUHU216HW,2013-03-03 23:30:00,
2013-03-03 18:35:00,33.1,16.9,29.44,WNW,293,8.3,8.3,51,0.00,,,0.00,WUHU216HW,2013-03-03 23:35:00,
2013-03-03 19:00:00,31.9,16.2,29.45,West,270,9.8,9.8,52,0.00,,,0.00,WUHU216HW,2013-03-04 00:00:00,
2013-03-03 19:05:00,31.9,16.2,29.45,West,270,9.8,9.8,52,0.00,,,0.00,WUHU216HW,2013-03-04 00:05:00,
2013-03-03 19:30:00,31.1,16.4,29.46,NNW,338,0.9,0.9,54,0.00,,,0.00,WUHU216HW,2013-03-04 00:30:00,
2013-03-03 19:35:00,31.1,16.4,29.46,NNW,338,0.9,0.9,54,0.00,,,0.00,WUHU216HW,2013-03-04 00:35:00,
2013-03-03 20:00:00,30.6,16.7,29.47,North,0,0.2,0.2,56,0.00,,,0.00,WUHU216HW,2013-03-04 01:00:00,
2013-03-03 20:05:00,30.6,16.7,29.47,North,0,0.2,0.2,56,0.00,,,0.00,WUHU216HW,2013-03-04 01:05:00,
2013-03-03 20:30:00,29.9,16.5,29.48,West,270,0.7,0.7,57,0.00,,,0.00,WUHU216HW,2013-03-04 01:30:00,
2013-03-03 20:35:00,29.9,16.5,29.48,West,270,0.7,0.7,57,0.00,,,0.00,WUHU216HW,2013-03-04 01:35:00,
2013-03-03 21:00:00,29.3,16.4,29.48,WNW,293,4.5,4.5,58,0.00,,,0.00,WUHU216HW,2013-03-04 02:00:00,
2013-03-03 21:05:00,29.3,16.4,29.48,WNW,293,4.5,4.5,58,0.00,,,0.00,WUHU216HW,2013-03-04 02:05:00,
2013-03-03 21:30:00,29.2,16.2,29.49,North,0,1.1,1.1,58,0.00,,,0.00,WUHU216HW,2013-03-04 02:30:00,
2013-03-03 21:35:00,29.2,16.2,29.49,North,0,1.1,1.1,58,0.00,,,0.00,WUHU216HW,2013-03-04 02:35:00,
2013-03-03 22:00:00,28.4,15.9,29.49,WNW,293,3.4,3.4,59,0.00,,,0.00,WUHU216HW,2013-03-04 03:00:00,
2013-03-03 22:05:00,28.4,15.9,29.49,WNW,293,3.4,3.4,59,0.00,,,0.00,WUHU216HW,2013-03-04 03:05:00,
2013-03-03 22:30:00,28.3,15.8,29.50,WNW,293,3.4,3.4,59,0.00,,,0.00,WUHU216HW,2013-03-04 03:30:00,
2013-03-03 22:35:00,28.3,15.8,29.50,WNW,293,3.4,3.4,59,0.00,,,0.00,WUHU216HW,2013-03-04 03:35:00,
2013-03-03 23:00:00,27.9,15.4,29.50,WNW,293,5.1,5.1,59,0.00,,,0.00,WUHU216HW,2013-03-04 04:00:00,
2013-03-03 23:05:00,27.9,15.4,29.50,WNW,293,5.1,5.1,59,0.00,,,0.00,WUHU216HW,2013-03-04 04:05:00,
2013-03-03 23:30:00,27.7,15.7,29.50,WNW,293,4.0,4.0,60,0.00,,,0.00,WUHU216HW,2013-03-04 04:30:00,
2013-03-03 23:35:00,27.7,15.7,29.50,WNW,293,4.0,4.0,60,0.00,,,0.00,WUHU216HW,2013-03-04 04:35:00,